Startpagina
METAR-TAF:

METAR-TAF

Vliegvelden :

Perth Airport

Perth, Australië

breedte: 31-56S, lengte: 115-57E, hoogte: 20 m

Actueel weer

Dit bericht is 26 minuten geleden gemaakt, om 00:00 UTC
Wind 7 kt uit het oosten
Temperatuur 23°C
Vochtigheid 41%
Druk 1013 hPa
Zicht 10 km of meer
geen wolken onder 1500 m en geen cumulonimbus

METAR: YPPH 190000Z 08007KT CAVOK 23/09 Q1013 NOSIG

Tijdstip: 08:26 (00:26 UTC)

Verwachting

Dit bericht is 1 uur en het 32 minuten geleden gemaakt, om 22:54 UTC
Verwachting geldig van 19 om 00 UTC tot 20 om 06 UTC
Wind 10 kt uit het oosten
Zicht 10 km of meer
geen wolken onder 1500 m en geen cumulonimbus
Van 19 om 0600 UTC
Wind 12 kt uit het zuidwesten
Zicht 10 km of meer
geen wolken onder 1500 m en geen cumulonimbus
Van 19 om 1800 UTC
Wind 12 kt uit het oosten
Zicht 10 km of meer
geen wolken onder 1500 m en geen cumulonimbus

TAF: YPPH 182254Z 1900/2006 09010KT CAVOK FM190600 22012KT CAVOK FM191800 10012KT CAVOK

Waarnemingen en weersverwachtingen van meer dan 4000 vliegvelden (METAR en TAF).

De beschikbare stations zijn de gele en rode punten op de kaart.

Ga met uw muis naar het station om de naam te zien.

Klik dan om waarnemingen en weersverwachtingen te zien.

kaart wijzigen: klik op de groene knoppen met een zwart kruis om in te zoomen, op de groene knop met een streepje om uit te zoomen of op de groene pijlen voor aangrenzende kaarten.


METAR-TAF: